Time;durP1;ratioP1;P1;durP2;ratioP2;P2;SDS_P1;SDS_P2;PMS_P1;PMS_P2;Temp;Humidity;BMP_temperature;BMP_pressure;BME280_temperature;BME280_humidity;BME280_pressure;Samples;Min_cycle;Max_cycle;Signal;HPM_P1;HPM_P2
2022/10/13 00:01:33;;;;;;;13.93;8.73;;;10.20;90.30;;;;;;1852478;77;21109;-58
2022/10/13 00:04:02;;;;;;;14.28;9.08;;;10.20;90.40;;;;;;1852389;77;21031;-58
2022/10/13 00:06:31;;;;;;;19.10;10.65;;;10.10;90.40;;;;;;1852449;77;21102;-58
2022/10/13 00:09:00;;;;;;;13.78;8.68;;;10.10;90.50;;;;;;1852266;77;21117;-58
2022/10/13 00:11:30;;;;;;;16.85;9.35;;;10.10;90.50;;;;;;1852340;77;21008;-58
2022/10/13 00:14:01;;;;;;;14.80;9.80;;;10.10;90.60;;;;;;1852295;77;21028;-58
2022/10/13 00:16:32;;;;;;;14.15;9.70;;;10.10;90.60;;;;;;1852360;77;21047;-58
2022/10/13 00:19:01;;;;;;;15.05;9.33;;;10.10;90.60;;;;;;1852302;77;21086;-58
2022/10/13 00:21:49;;;;;;;14.35;8.98;;;10.10;90.60;;;;;;1852308;77;21027;-58
2022/10/13 00:24:19;;;;;;;13.55;9.08;;;10.10;90.60;;;;;;1861261;77;21055;-58
2022/10/13 00:26:51;;;;;;;14.60;9.30;;;10.00;90.50;;;;;;1861132;77;21034;-58
2022/10/13 00:29:20;;;;;;;12.00;8.13;;;10.00;90.40;;;;;;1861133;77;21020;-58
2022/10/13 00:31:49;;;;;;;14.18;8.38;;;10.00;90.40;;;;;;1861314;77;21051;-58
2022/10/13 00:34:19;;;;;;;13.08;8.13;;;9.90;90.40;;;;;;1861175;77;21031;-58
2022/10/13 00:36:48;;;;;;;13.62;8.88;;;9.90;90.50;;;;;;1861129;77;21035;-58
2022/10/13 00:39:17;;;;;;;14.75;8.65;;;9.90;90.60;;;;;;1861131;77;21027;-58
2022/10/13 00:41:46;;;;;;;14.07;7.92;;;9.80;90.70;;;;;;1861252;77;21050;-58
2022/10/13 00:44:51;;;;;;;13.98;8.58;;;9.90;90.80;;;;;;1861128;75;21023;-58
2022/10/13 00:47:21;;;;;;;17.20;7.75;;;9.90;90.80;;;;;;1861330;77;21035;-59
2022/10/13 00:49:52;;;;;;;14.18;8.23;;;9.90;90.70;;;;;;1861089;77;21117;-60
2022/10/13 00:52:21;;;;;;;16.32;8.65;;;10.00;90.80;;;;;;1861142;77;21035;-57
2022/10/13 00:54:51;;;;;;;10.20;7.40;;;10.00;90.80;;;;;;1861257;77;21161;-57
2022/10/13 00:57:22;;;;;;;9.45;6.58;;;10.00;90.70;;;;;;1861303;77;21030;-57
2022/10/13 00:59:52;;;;;;;9.83;7.10;;;9.90;90.60;;;;;;1861292;77;21465;-57
2022/10/13 01:02:22;;;;;;;9.60;7.22;;;9.90;90.80;;;;;;1861232;77;21132;-57
2022/10/13 01:04:53;;;;;;;13.13;7.08;;;9.90;90.80;;;;;;1861181;77;21123;-57
2022/10/13 01:07:22;;;;;;;10.05;7.25;;;9.90;90.90;;;;;;1861134;77;21039;-57
2022/10/13 01:09:52;;;;;;;10.93;6.92;;;9.90;90.90;;;;;;1861181;77;21086;-57
2022/10/13 01:12:33;;;;;;;11.80;7.60;;;9.90;91.00;;;;;;1861133;77;21007;-57
2022/10/13 01:15:11;;;;;;;12.20;7.12;;;9.90;91.00;;;;;;1861178;77;21178;-57
2022/10/13 01:18:02;;;;;;;16.07;8.68;;;9.90;91.20;;;;;;1861086;77;21547;-57
2022/10/13 01:20:53;;;;;;;13.98;7.60;;;9.90;91.00;;;;;;1861263;77;21050;-57
2022/10/13 01:23:54;;;;;;;11.08;7.15;;;9.90;90.90;;;;;;1861164;76;21101;-57
2022/10/13 01:26:57;;;;;;;11.18;7.60;;;9.90;91.00;;;;;;1859592;77;21066;-57
2022/10/13 01:29:51;;;;;;;12.47;6.92;;;9.90;91.00;;;;;;1861050;77;21039;-57
2022/10/13 01:32:25;;;;;;;10.50;7.78;;;9.80;90.90;;;;;;1861100;75;21059;-57
2022/10/13 01:35:04;;;;;;;11.45;7.35;;;9.80;90.90;;;;;;1861081;77;21497;-57
2022/10/13 01:37:51;;;;;;;11.18;7.58;;;9.80;91.00;;;;;;1860932;77;21082;-57
2022/10/13 01:40:29;;;;;;;10.55;7.53;;;9.80;90.80;;;;;;1860798;77;21063;-57
2022/10/13 01:43:04;;;;;;;12.25;7.10;;;9.80;90.90;;;;;;1837371;77;21125;-57
2022/10/13 01:45:38;;;;;;;11.63;7.55;;;9.80;90.90;;;;;;1861380;77;21062;-57
2022/10/13 01:48:10;;;;;;;10.28;7.92;;;9.70;90.90;;;;;;1860583;77;21062;-57
2022/10/13 01:50:41;;;;;;;10.58;7.55;;;9.70;91.00;;;;;;1861052;77;21094;-57
2022/10/13 01:53:12;;;;;;;8.10;6.45;;;9.70;91.00;;;;;;1861236;77;21035;-57
2022/10/13 01:55:53;;;;;;;10.72;7.00;;;9.70;91.10;;;;;;1861155;77;21056;-57
2022/10/13 01:58:23;;;;;;;10.25;6.90;;;9.80;91.10;;;;;;1861103;77;21101;-57
2022/10/13 02:01:12;;;;;;;8.88;7.03;;;9.70;91.10;;;;;;1861276;77;21144;-57
2022/10/13 02:03:57;;;;;;;11.95;7.33;;;9.80;91.00;;;;;;1861183;77;21063;-57
2022/10/13 02:06:38;;;;;;;9.03;6.63;;;9.70;91.00;;;;;;1821282;75;21125;-57
2022/10/13 02:09:12;;;;;;;8.88;6.65;;;9.70;91.00;;;;;;1860304;77;21109;-57
2022/10/13 02:11:45;;;;;;;10.60;7.30;;;9.70;91.10;;;;;;1859143;77;21043;-57
2022/10/13 02:14:23;;;;;;;7.80;6.78;;;9.70;91.20;;;;;;1860998;77;21129;-57
2022/10/13 02:16:54;;;;;;;10.95;6.65;;;9.70;91.20;;;;;;1859325;77;21497;-57
2022/10/13 02:19:25;;;;;;;11.50;7.05;;;9.70;91.20;;;;;;1861184;77;21109;-57
2022/10/13 02:21:54;;;;;;;14.25;7.65;;;9.70;91.20;;;;;;1861120;77;21152;-57
2022/10/13 02:24:23;;;;;;;8.58;6.65;;;9.70;91.20;;;;;;1861173;77;21508;-57
2022/10/13 02:26:53;;;;;;;10.85;7.33;;;9.70;91.20;;;;;;1861099;77;21043;-57
2022/10/13 02:29:22;;;;;;;9.73;7.40;;;9.60;91.20;;;;;;1861073;77;21030;-57
2022/10/13 02:31:53;;;;;;;10.70;7.55;;;9.60;91.20;;;;;;1861117;77;21055;-57
2022/10/13 02:34:22;;;;;;;9.20;6.72;;;9.60;91.30;;;;;;1861129;77;21035;-57
2022/10/13 02:36:51;;;;;;;11.43;7.00;;;9.60;91.40;;;;;;1861172;77;21031;-57
2022/10/13 02:39:20;;;;;;;8.25;6.90;;;9.60;91.40;;;;;;1861201;77;21105;-57
2022/10/13 02:41:49;;;;;;;9.10;6.47;;;9.60;91.40;;;;;;1861191;77;21030;-57
2022/10/13 02:44:19;;;;;;;10.58;6.50;;;9.60;91.40;;;;;;1861331;77;21121;-57
2022/10/13 02:46:48;;;;;;;9.10;6.03;;;9.60;91.40;;;;;;1861222;77;21031;-57
2022/10/13 02:49:18;;;;;;;11.35;6.50;;;9.50;91.10;;;;;;1861139;77;21055;-57
2022/10/13 02:51:47;;;;;;;10.80;6.42;;;9.50;91.20;;;;;;1861207;77;21120;-58
2022/10/13 02:54:16;;;;;;;13.53;6.67;;;9.40;91.30;;;;;;1861343;77;21035;-57
2022/10/13 02:56:45;;;;;;;9.95;6.10;;;9.40;91.40;;;;;;1861205;75;21113;-57
2022/10/13 02:59:15;;;;;;;11.93;6.30;;;9.40;91.40;;;;;;1861093;77;21097;-57
2022/10/13 03:01:44;;;;;;;8.93;6.05;;;9.40;91.40;;;;;;1861043;77;21169;-58
2022/10/13 03:04:14;;;;;;;8.03;5.67;;;9.40;91.50;;;;;;1861147;77;21038;-57
2022/10/13 03:06:43;;;;;;;13.10;6.67;;;9.40;91.50;;;;;;1861131;77;21029;-57
2022/10/13 03:09:14;;;;;;;11.63;6.85;;;9.40;91.50;;;;;;1861136;77;21093;-57
2022/10/13 03:11:42;;;;;;;9.58;5.80;;;9.40;91.50;;;;;;1861174;77;21011;-57
2022/10/13 03:14:12;;;;;;;7.20;5.12;;;9.40;91.40;;;;;;1861045;75;21031;-57
2022/10/13 03:16:41;;;;;;;10.05;5.53;;;9.40;91.40;;;;;;1861160;77;21062;-57
2022/10/13 03:19:11;;;;;;;11.73;5.72;;;9.40;91.50;;;;;;1861299;77;21031;-57
2022/10/13 03:21:40;;;;;;;8.40;5.53;;;9.40;91.50;;;;;;1861261;77;21027;-57
2022/10/13 03:24:10;;;;;;;7.85;5.83;;;9.40;91.50;;;;;;1862012;76;21090;-57
2022/10/13 03:26:39;;;;;;;9.48;6.45;;;9.40;91.60;;;;;;1863888;77;21054;-57
2022/10/13 03:29:10;;;;;;;9.30;6.20;;;9.40;91.60;;;;;;1863816;77;21046;-57
2022/10/13 03:31:39;;;;;;;7.65;5.47;;;9.40;91.60;;;;;;1863720;77;21458;-57
2022/10/13 03:34:12;;;;;;;8.65;5.58;;;9.40;91.60;;;;;;1863895;77;21035;-58
2022/10/13 03:36:41;;;;;;;10.00;6.58;;;9.40;91.50;;;;;;1863856;77;21096;-57
2022/10/13 03:39:10;;;;;;;13.50;5.65;;;9.40;91.50;;;;;;1863792;77;21034;-57
2022/10/13 03:41:39;;;;;;;8.50;5.85;;;9.40;91.60;;;;;;1863967;77;21233;-57
2022/10/13 03:44:12;;;;;;;10.80;5.60;;;9.40;91.60;;;;;;1863882;77;21089;-57
2022/10/13 03:46:41;;;;;;;11.65;5.05;;;9.40;91.60;;;;;;1863720;77;21043;-57
2022/10/13 03:49:11;;;;;;;7.22;5.30;;;9.40;91.60;;;;;;1863827;77;21046;-57
2022/10/13 03:51:41;;;;;;;10.45;5.42;;;9.40;91.60;;;;;;1863891;77;21109;-57
2022/10/13 03:54:12;;;;;;;7.87;5.40;;;9.30;91.50;;;;;;1863894;77;21031;-57
2022/10/13 03:56:42;;;;;;;11.33;5.67;;;9.30;91.50;;;;;;1863857;77;21027;-57
2022/10/13 03:59:15;;;;;;;8.95;5.50;;;9.30;91.60;;;;;;1863872;77;21478;-57
2022/10/13 04:01:43;;;;;;;10.58;5.80;;;9.30;91.70;;;;;;1863835;77;21046;-57
2022/10/13 04:04:13;;;;;;;10.72;5.72;;;9.40;91.70;;;;;;1863839;77;21465;-57
2022/10/13 04:06:42;;;;;;;8.68;5.37;;;9.30;91.60;;;;;;1864004;77;21031;-57
2022/10/13 04:09:11;;;;;;;10.70;6.92;;;9.40;91.70;;;;;;1863758;77;21054;-57
2022/10/13 04:11:40;;;;;;;13.62;6.10;;;9.40;91.70;;;;;;1863801;77;21027;-57
2022/10/13 04:14:09;;;;;;;10.23;5.80;;;9.40;91.70;;;;;;1863851;77;21552;-57
2022/10/13 04:16:39;;;;;;;7.62;5.67;;;9.30;91.70;;;;;;1863703;77;21145;-57
2022/10/13 04:19:10;;;;;;;16.57;6.58;;;9.40;91.70;;;;;;1863678;77;21031;-57
2022/10/13 04:21:39;;;;;;;13.60;7.00;;;9.40;91.80;;;;;;1863741;77;21532;-58
2022/10/13 04:24:10;;;;;;;8.23;6.12;;;9.40;91.70;;;;;;1863556;76;21039;-57
2022/10/13 04:26:39;;;;;;;10.63;6.25;;;9.40;91.80;;;;;;1861073;77;21552;-57
2022/10/13 04:29:10;;;;;;;8.33;6.00;;;9.50;91.70;;;;;;1861162;77;21035;-57
2022/10/13 04:31:42;;;;;;;11.78;7.50;;;9.50;91.70;;;;;;1861053;77;21231;-57
2022/10/13 04:34:11;;;;;;;13.95;7.17;;;9.50;91.80;;;;;;1861146;77;21035;-57
2022/10/13 04:36:40;;;;;;;9.55;7.30;;;9.50;91.80;;;;;;1861128;77;21043;-57
2022/10/13 04:39:09;;;;;;;11.95;7.47;;;9.60;91.80;;;;;;1861256;77;21093;-57
2022/10/13 04:41:39;;;;;;;9.78;6.25;;;9.60;91.70;;;;;;1861139;77;21125;-57
2022/10/13 04:44:09;;;;;;;8.38;7.12;;;9.70;91.70;;;;;;1861135;77;21045;-57
2022/10/13 04:46:38;;;;;;;10.00;6.83;;;9.70;91.80;;;;;;1861394;77;21038;-57
2022/10/13 04:49:07;;;;;;;11.65;6.65;;;9.70;91.80;;;;;;1861199;77;21092;-57
2022/10/13 04:51:38;;;;;;;14.00;6.50;;;9.80;91.80;;;;;;1861121;76;21061;-57
2022/10/13 04:54:08;;;;;;;13.13;6.70;;;9.80;91.70;;;;;;1861245;77;21167;-57
2022/10/13 04:56:37;;;;;;;14.38;6.28;;;9.90;91.70;;;;;;1861200;77;21019;-57
2022/10/13 04:59:07;;;;;;;10.10;6.80;;;10.00;91.80;;;;;;1861112;77;21062;-57
2022/10/13 05:01:37;;;;;;;10.98;5.80;;;10.00;91.80;;;;;;1861151;75;21067;-57
2022/10/13 05:04:07;;;;;;;16.42;6.87;;;10.10;91.80;;;;;;1861188;77;21070;-57
2022/10/13 05:06:41;;;;;;;13.22;8.25;;;10.20;91.90;;;;;;1861051;77;21125;-58
2022/10/13 05:09:15;;;;;;;18.12;8.80;;;10.20;91.80;;;;;;1861027;77;21114;-57
2022/10/13 05:11:44;;;;;;;12.20;7.60;;;10.30;91.20;;;;;;1860999;77;21328;-57
2022/10/13 05:14:14;;;;;;;15.03;7.47;;;10.20;91.50;;;;;;1861145;77;21104;-57
2022/10/13 05:16:43;;;;;;;15.18;8.25;;;10.20;91.50;;;;;;1860978;77;21108;-57
2022/10/13 05:19:14;;;;;;;12.50;7.80;;;10.20;91.50;;;;;;1860720;76;21056;-57
2022/10/13 05:21:43;;;;;;;12.55;7.20;;;10.20;91.50;;;;;;1860972;77;21031;-57
2022/10/13 05:24:14;;;;;;;35.65;17.80;;;10.30;91.60;;;;;;1860979;77;21023;-57
2022/10/13 05:26:45;;;;;;;10.60;7.05;;;10.30;91.40;;;;;;1861279;76;21094;-57
2022/10/13 05:29:14;;;;;;;10.88;6.70;;;10.40;91.50;;;;;;1861058;77;21521;-57
2022/10/13 05:31:43;;;;;;;12.00;5.90;;;10.40;91.50;;;;;;1861028;77;21078;-57
2022/10/13 05:34:12;;;;;;;7.78;5.60;;;10.50;91.40;;;;;;1861008;75;21430;-57
2022/10/13 05:36:42;;;;;;;8.80;6.40;;;10.50;91.30;;;;;;1861157;75;21155;-57
2022/10/13 05:39:11;;;;;;;10.60;6.95;;;10.60;91.30;;;;;;1860995;77;21050;-57
2022/10/13 05:41:41;;;;;;;31.75;18.37;;;10.70;91.40;;;;;;1861083;77;21478;-57
2022/10/13 05:44:12;;;;;;;24.18;16.97;;;10.70;91.40;;;;;;1860780;77;21128;-57
2022/10/13 05:46:43;;;;;;;37.53;21.68;;;10.80;91.40;;;;;;1859672;75;21415;-57
2022/10/13 05:49:12;;;;;;;47.13;29.52;;;10.90;91.40;;;;;;1860951;77;21035;-57
2022/10/13 05:51:47;;;;;;;39.75;25.92;;;11.00;91.30;;;;;;1860905;77;21125;-57
2022/10/13 05:54:25;;;;;;;33.18;21.42;;;11.10;91.10;;;;;;1860209;77;21098;-57
2022/10/13 05:57:21;;;;;;;28.10;15.13;;;11.20;91.10;;;;;;1860455;77;21581;-57
2022/10/13 05:59:53;;;;;;;58.20;32.70;;;11.20;91.00;;;;;;1860924;77;21096;-57
2022/10/13 06:02:24;;;;;;;42.58;24.82;;;11.30;91.00;;;;;;1861036;77;21039;-57
2022/10/13 06:04:56;;;;;;;74.05;44.80;;;11.40;91.00;;;;;;1860973;77;21074;-57
2022/10/13 06:07:26;;;;;;;66.35;35.10;;;11.40;90.50;;;;;;1861072;77;21082;-57
2022/10/13 06:09:55;;;;;;;56.02;35.28;;;11.50;90.60;;;;;;1860926;77;21043;-57
2022/10/13 06:12:24;;;;;;;64.77;41.83;;;11.60;90.70;;;;;;1860850;77;21050;-57
2022/10/13 06:14:54;;;;;;;43.10;28.67;;;11.60;90.80;;;;;;1860997;77;21039;-57
2022/10/13 06:17:23;;;;;;;26.07;16.93;;;11.70;90.70;;;;;;1860950;76;21097;-57
2022/10/13 06:19:52;;;;;;;13.45;9.35;;;11.80;90.60;;;;;;1860924;77;21097;-57
2022/10/13 06:22:21;;;;;;;15.35;10.35;;;11.90;90.30;;;;;;1860905;77;21121;-57
2022/10/13 06:24:50;;;;;;;10.18;7.40;;;12.00;90.40;;;;;;1860939;77;21035;-57
2022/10/13 06:27:19;;;;;;;8.95;6.08;;;12.00;90.20;;;;;;1860923;76;21126;-57
2022/10/13 06:29:49;;;;;;;7.70;5.17;;;12.10;90.10;;;;;;1860983;77;21146;-57
2022/10/13 06:32:18;;;;;;;6.55;5.05;;;12.20;89.90;;;;;;1860868;77;21137;-57
2022/10/13 06:34:47;;;;;;;8.35;3.75;;;12.30;89.70;;;;;;1861023;77;21147;-57
2022/10/13 06:37:16;;;;;;;4.58;3.58;;;12.30;89.60;;;;;;1860905;77;21082;-57
2022/10/13 06:39:46;;;;;;;19.75;4.90;;;12.40;89.40;;;;;;1861024;77;21469;-57
2022/10/13 06:42:15;;;;;;;8.55;5.40;;;12.50;88.40;;;;;;1860952;77;21126;-57
2022/10/13 06:44:44;;;;;;;8.38;5.53;;;12.50;88.00;;;;;;1861054;77;21031;-57
2022/10/13 06:47:13;;;;;;;11.20;6.05;;;12.50;87.50;;;;;;1860943;77;21050;-57
2022/10/13 06:49:43;;;;;;;16.15;6.60;;;12.60;87.40;;;;;;1860907;77;21055;-57
2022/10/13 06:52:13;;;;;;;7.67;4.40;;;12.70;87.00;;;;;;1860882;77;21127;-57
2022/10/13 06:54:43;;;;;;;8.80;4.35;;;12.70;86.80;;;;;;1861052;77;21035;-57
2022/10/13 06:57:12;;;;;;;7.87;4.08;;;12.80;87.10;;;;;;1860966;75;21101;-57
2022/10/13 06:59:43;;;;;;;5.00;3.72;;;12.80;86.40;;;;;;1861065;77;21142;-57
2022/10/13 07:02:12;;;;;;;7.15;4.60;;;12.90;86.60;;;;;;1860952;77;21003;-57
2022/10/13 07:04:40;;;;;;;7.08;3.25;;;13.00;86.30;;;;;;1860899;77;21113;-57
2022/10/13 07:07:10;;;;;;;9.15;3.58;;;13.00;86.20;;;;;;1860898;77;21055;-57
2022/10/13 07:09:39;;;;;;;4.12;2.92;;;13.10;85.00;;;;;;1861063;77;21031;-57
2022/10/13 07:12:09;;;;;;;6.80;2.65;;;13.10;85.50;;;;;;1860864;77;21113;-58
2022/10/13 07:14:38;;;;;;;4.35;2.83;;;13.20;85.00;;;;;;1861069;77;21101;-57
2022/10/13 07:17:07;;;;;;;6.75;2.52;;;13.20;85.20;;;;;;1860903;77;21086;-57
2022/10/13 07:19:36;;;;;;;3.62;2.75;;;13.30;85.20;;;;;;1860906;77;21086;-57
2022/10/13 07:22:05;;;;;;;7.37;3.08;;;13.40;85.20;;;;;;1860916;77;21128;-58
2022/10/13 07:24:34;;;;;;;7.75;5.97;;;13.40;84.50;;;;;;1860921;77;21019;-57
2022/10/13 07:27:04;;;;;;;4.45;3.10;;;13.40;84.60;;;;;;1860972;77;21087;-57
2022/10/13 07:29:33;;;;;;;6.62;2.65;;;13.50;84.50;;;;;;1860815;77;21062;-57
2022/10/13 07:32:02;;;;;;;6.42;2.90;;;13.60;84.20;;;;;;1860788;77;21050;-57
2022/10/13 07:34:31;;;;;;;3.70;2.80;;;13.60;84.10;;;;;;1860955;77;21042;-57
2022/10/13 07:37:01;;;;;;;15.00;4.50;;;13.70;84.00;;;;;;1861005;77;21050;-57
2022/10/13 07:39:30;;;;;;;7.25;3.67;;;13.70;83.60;;;;;;1861071;77;21158;-57
2022/10/13 07:42:00;;;;;;;17.67;7.87;;;13.80;83.60;;;;;;1861047;77;21039;-57
2022/10/13 07:44:29;;;;;;;4.80;3.30;;;13.80;83.70;;;;;;1861048;77;21051;-57
2022/10/13 07:46:58;;;;;;;6.40;3.92;;;13.90;83.20;;;;;;1861021;77;21047;-57
2022/10/13 07:49:27;;;;;;;4.20;3.25;;;14.00;83.40;;;;;;1860859;77;21152;-57
2022/10/13 07:51:58;;;;;;;7.65;4.22;;;14.00;83.10;;;;;;1860975;77;21567;-57
2022/10/13 07:54:27;;;;;;;7.37;3.10;;;14.10;83.60;;;;;;1861049;77;21156;-57
2022/10/13 07:56:56;;;;;;;5.35;2.98;;;14.10;81.60;;;;;;1861122;77;21117;-57
2022/10/13 07:59:25;;;;;;;4.30;3.05;;;14.20;81.10;;;;;;1861065;75;21113;-57
2022/10/13 08:01:55;;;;;;;4.42;3.10;;;14.20;80.50;;;;;;1860951;77;21111;-57
2022/10/13 08:04:24;;;;;;;6.25;2.95;;;14.30;80.90;;;;;;1861060;75;21535;-58
2022/10/13 08:06:53;;;;;;;5.00;2.80;;;14.30;81.20;;;;;;1861052;77;21062;-58
2022/10/13 08:09:23;;;;;;;5.62;2.83;;;14.40;80.60;;;;;;1861049;77;21046;-58
2022/10/13 08:11:52;;;;;;;3.20;2.90;;;14.40;80.10;;;;;;1861095;77;21133;-58
2022/10/13 08:14:22;;;;;;;4.90;3.45;;;14.50;78.40;;;;;;1861133;77;21052;-58
2022/10/13 08:16:51;;;;;;;6.95;4.75;;;14.50;78.80;;;;;;1861135;77;21063;-58
2022/10/13 08:19:21;;;;;;;3.75;2.70;;;14.60;78.60;;;;;;1861237;77;21086;-58
2022/10/13 13:01:16;;;;;;;62.30;29.10;;;17.10;52.50;;;;;;1957261;73;26318;-46
2022/10/13 13:03:46;;;;;;;24.67;12.82;;;17.10;54.10;;;;;;1917800;75;21062;-53
2022/10/13 13:06:17;;;;;;;7.00;4.25;;;17.10;55.20;;;;;;1917662;74;21109;-56
2022/10/13 13:08:46;;;;;;;7.80;4.17;;;17.10;54.30;;;;;;1917662;75;21552;-53
2022/10/13 13:11:24;;;;;;;8.95;4.67;;;17.10;54.20;;;;;;1917175;75;21080;-56
2022/10/13 13:13:56;;;;;;;9.80;5.62;;;17.20;54.30;;;;;;1917653;75;21086;-55
2022/10/13 13:16:25;;;;;;;14.38;6.90;;;17.20;54.30;;;;;;1911089;75;21094;-58
2022/10/13 13:18:54;;;;;;;9.13;5.53;;;17.20;53.90;;;;;;1917682;75;21022;-56
2022/10/13 13:21:23;;;;;;;9.18;5.78;;;17.20;54.30;;;;;;1916537;73;21673;-58
2022/10/13 13:23:52;;;;;;;16.65;7.70;;;17.20;54.20;;;;;;1884894;76;21150;-58
2022/10/13 13:26:23;;;;;;;21.42;10.20;;;17.10;53.60;;;;;;1885355;76;21033;-58
2022/10/13 13:28:54;;;;;;;31.82;15.75;;;17.10;53.60;;;;;;1885435;76;21025;-57
2022/10/13 13:31:25;;;;;;;45.45;21.55;;;17.10;53.40;;;;;;1885905;76;21037;-57
2022/10/13 13:33:54;;;;;;;63.52;29.00;;;17.10;53.70;;;;;;1885805;76;21056;-57
2022/10/13 13:36:25;;;;;;;57.05;28.50;;;17.10;53.70;;;;;;1885806;76;21120;-56
2022/10/13 13:38:55;;;;;;;57.35;28.65;;;17.00;54.00;;;;;;1885894;76;20989;-57
2022/10/13 13:41:26;;;;;;;61.23;25.08;;;17.00;54.40;;;;;;1885787;76;21013;-55
2022/10/13 13:43:54;;;;;;;53.52;27.27;;;17.00;54.80;;;;;;1885900;76;21025;-57
2022/10/13 13:46:26;;;;;;;38.75;19.65;;;16.90;54.80;;;;;;1885790;76;21045;-56
2022/10/13 13:48:55;;;;;;;34.08;17.75;;;16.90;54.70;;;;;;1885787;76;21009;-55
2022/10/13 13:51:24;;;;;;;38.45;17.87;;;16.80;55.00;;;;;;1885757;76;21033;-55
2022/10/13 13:53:54;;;;;;;43.25;17.57;;;16.80;55.40;;;;;;1885896;76;21049;-56
2022/10/13 13:56:23;;;;;;;30.27;15.93;;;16.70;55.70;;;;;;1885722;76;21009;-57
2022/10/13 13:58:52;;;;;;;29.37;12.80;;;16.70;55.70;;;;;;1885765;76;21088;-56
2022/10/13 14:01:22;;;;;;;19.07;10.38;;;16.70;55.70;;;;;;1874306;75;21070;-56
2022/10/13 14:03:51;;;;;;;19.95;9.23;;;16.60;55.50;;;;;;1873445;76;20994;-56
2022/10/13 14:06:21;;;;;;;19.23;8.75;;;16.60;55.90;;;;;;1873483;76;21017;-56
2022/10/13 14:08:51;;;;;;;16.10;8.73;;;16.50;56.40;;;;;;1873437;76;21060;-57
2022/10/13 14:11:20;;;;;;;17.17;8.63;;;16.40;57.40;;;;;;1873222;76;21030;-54
2022/10/13 14:13:49;;;;;;;21.40;8.23;;;16.30;58.20;;;;;;1872981;77;21018;-57
2022/10/13 14:16:20;;;;;;;23.00;8.93;;;16.30;58.70;;;;;;1871365;77;21044;-56
2022/10/13 14:18:49;;;;;;;18.82;8.50;;;16.20;58.80;;;;;;1872934;77;21037;-56
2022/10/13 14:21:18;;;;;;;15.63;7.97;;;16.10;58.90;;;;;;1872833;77;20994;-55
2022/10/13 14:23:48;;;;;;;15.35;7.47;;;16.00;59.50;;;;;;1872916;76;21025;-57
2022/10/13 14:26:17;;;;;;;17.45;9.23;;;16.00;60.20;;;;;;1873105;77;21076;-55
2022/10/13 14:28:46;;;;;;;21.80;8.40;;;15.90;60.30;;;;;;1872998;77;21029;-54
2022/10/13 14:31:16;;;;;;;21.40;8.48;;;15.80;60.50;;;;;;1873008;77;21131;-57
2022/10/13 14:33:47;;;;;;;26.35;10.03;;;15.80;61.30;;;;;;1872632;76;21096;-56
2022/10/13 14:36:16;;;;;;;25.70;9.73;;;15.70;61.40;;;;;;1872839;76;21041;-56
2022/10/13 14:38:45;;;;;;;23.67;9.40;;;15.60;61.70;;;;;;1872845;76;21033;-56
2022/10/13 14:41:15;;;;;;;27.17;9.30;;;15.60;61.80;;;;;;1872797;76;21045;-56
2022/10/13 14:43:46;;;;;;;22.13;9.70;;;15.50;62.20;;;;;;1872736;76;21086;-55
2022/10/13 14:46:15;;;;;;;16.35;8.00;;;15.50;62.70;;;;;;1872879;77;21179;-54
2022/10/13 14:48:45;;;;;;;23.05;10.32;;;15.40;63.30;;;;;;1872844;76;21021;-56
2022/10/13 14:51:14;;;;;;;20.62;8.80;;;15.40;63.80;;;;;;1872749;76;21033;-56
2022/10/13 14:53:45;;;;;;;20.45;10.50;;;15.30;64.10;;;;;;1872831;76;21092;-54
2022/10/13 14:56:29;;;;;;;24.05;11.80;;;15.20;64.60;;;;;;1872736;76;21005;-55
2022/10/13 14:59:01;;;;;;;35.75;11.00;;;15.20;65.00;;;;;;1872870;75;21061;-56
2022/10/13 15:01:43;;;;;;;31.90;10.58;;;15.20;65.30;;;;;;1872780;76;21053;-52
2022/10/13 15:04:13;;;;;;;39.20;12.93;;;15.10;65.90;;;;;;1872718;75;21057;-55
2022/10/13 15:06:43;;;;;;;45.25;12.10;;;15.00;66.40;;;;;;1872984;77;21033;-55
2022/10/13 15:09:12;;;;;;;28.57;12.58;;;15.00;66.90;;;;;;1872757;76;21009;-56
2022/10/13 15:11:41;;;;;;;40.50;13.62;;;14.90;67.00;;;;;;1872691;76;21116;-56
2022/10/13 15:14:10;;;;;;;60.23;21.33;;;14.90;67.20;;;;;;1872853;77;21029;-54
2022/10/13 15:16:39;;;;;;;44.70;16.60;;;14.80;67.40;;;;;;1872721;76;21124;-56
2022/10/13 15:19:08;;;;;;;41.40;14.23;;;14.70;67.50;;;;;;1872812;77;21096;-53
2022/10/13 15:21:37;;;;;;;28.57;11.93;;;14.70;68.30;;;;;;1872711;76;21095;-55
2022/10/13 15:24:07;;;;;;;43.63;16.05;;;14.60;68.70;;;;;;1872680;77;21496;-55
2022/10/13 15:26:37;;;;;;;38.20;13.22;;;14.60;69.10;;;;;;1872948;77;21029;-56
2022/10/13 15:29:06;;;;;;;42.35;15.15;;;14.50;69.30;;;;;;1872696;76;21084;-54
2022/10/13 15:31:35;;;;;;;36.00;12.98;;;14.50;69.80;;;;;;1872780;76;21166;-55
2022/10/13 15:34:04;;;;;;;37.40;14.85;;;14.40;70.10;;;;;;1872756;75;21073;-55
2022/10/13 15:36:33;;;;;;;38.83;15.25;;;14.40;70.30;;;;;;1872724;77;21099;-54
2022/10/13 15:39:02;;;;;;;28.35;13.45;;;14.30;70.30;;;;;;1872748;76;21107;-57
2022/10/13 15:41:31;;;;;;;29.92;12.05;;;14.30;70.50;;;;;;1872748;77;21022;-54
2022/10/13 15:44:01;;;;;;;28.15;12.75;;;14.20;70.80;;;;;;1872827;77;21062;-53
2022/10/13 15:46:30;;;;;;;25.45;12.73;;;14.20;71.30;;;;;;1872734;77;21013;-55
2022/10/13 15:49:00;;;;;;;27.15;12.03;;;14.20;71.50;;;;;;1872697;75;21057;-56
2022/10/13 15:51:31;;;;;;;23.60;12.45;;;14.20;71.80;;;;;;1872747;76;21037;-54
2022/10/13 15:54:00;;;;;;;25.43;10.45;;;14.10;72.00;;;;;;1872720;77;21105;-52
2022/10/13 15:56:29;;;;;;;43.87;16.52;;;14.10;72.30;;;;;;1872900;77;21037;-54
2022/10/13 15:58:59;;;;;;;46.98;19.32;;;14.00;72.00;;;;;;1872869;75;21097;-55
2022/10/13 16:01:28;;;;;;;65.30;25.37;;;14.00;71.60;;;;;;1872722;76;21100;-53
2022/10/13 16:03:57;;;;;;;36.55;15.80;;;13.80;71.70;;;;;;1872948;77;21043;-55
2022/10/13 16:06:27;;;;;;;38.53;18.25;;;13.70;71.60;;;;;;1873016;75;21030;-55
2022/10/13 16:08:56;;;;;;;41.70;19.40;;;13.60;72.30;;;;;;1872850;77;21026;-54
2022/10/13 16:11:25;;;;;;;54.30;19.42;;;13.50;72.80;;;;;;1872827;77;21054;-55
2022/10/13 16:13:54;;;;;;;32.60;14.20;;;13.50;72.90;;;;;;1872815;77;21222;-55
2022/10/13 16:16:24;;;;;;;24.18;11.95;;;13.40;73.20;;;;;;1872889;76;21058;-54
2022/10/13 16:18:53;;;;;;;26.80;11.35;;;13.40;73.70;;;;;;1872824;77;21087;-55
2022/10/13 16:21:24;;;;;;;22.77;11.50;;;13.40;73.80;;;;;;1872915;77;21133;-54
2022/10/13 16:23:54;;;;;;;31.48;12.25;;;13.40;73.90;;;;;;1872757;76;21079;-56
2022/10/13 16:26:24;;;;;;;23.90;12.37;;;13.40;74.00;;;;;;1872924;77;21017;-53
2022/10/13 16:28:55;;;;;;;25.45;12.65;;;13.40;74.30;;;;;;1872866;77;21064;-55
2022/10/13 16:31:25;;;;;;;21.48;11.85;;;13.40;74.70;;;;;;1872952;77;21053;-55
2022/10/13 16:33:55;;;;;;;27.93;14.25;;;13.40;75.00;;;;;;1872818;76;21029;-55
2022/10/13 16:36:24;;;;;;;26.00;13.18;;;13.50;75.20;;;;;;1872870;77;21014;-54
2022/10/13 16:38:56;;;;;;;31.55;13.65;;;13.40;75.40;;;;;;1872801;77;21095;-53
2022/10/13 16:41:26;;;;;;;30.72;13.05;;;13.40;75.50;;;;;;1872861;76;21123;-56
2022/10/13 16:43:55;;;;;;;28.40;13.48;;;13.40;75.60;;;;;;1872956;76;21127;-56
2022/10/13 16:46:24;;;;;;;26.20;14.13;;;13.40;75.90;;;;;;1872809;77;21017;-56
2022/10/13 16:48:54;;;;;;;23.05;13.50;;;13.30;76.10;;;;;;1872792;77;21139;-56
2022/10/13 16:51:24;;;;;;;28.77;13.98;;;13.40;76.20;;;;;;1872845;77;21042;-55
2022/10/13 16:53:55;;;;;;;35.58;16.30;;;13.30;76.20;;;;;;1872835;77;21021;-56
2022/10/13 16:56:26;;;;;;;30.20;14.03;;;13.30;76.20;;;;;;1872867;77;21033;-56
2022/10/13 16:59:00;;;;;;;24.77;14.00;;;13.20;76.60;;;;;;1872757;75;21108;-55
2022/10/13 17:01:31;;;;;;;32.20;16.77;;;13.20;76.90;;;;;;1872976;75;21053;-54
2022/10/13 17:04:00;;;;;;;42.15;18.10;;;13.20;77.30;;;;;;1872683;77;21050;-53
2022/10/13 17:06:30;;;;;;;37.70;17.62;;;13.10;77.00;;;;;;1872738;77;21095;-54
2022/10/13 17:09:02;;;;;;;53.85;18.70;;;13.10;77.10;;;;;;1872685;77;21138;-55
2022/10/13 17:11:33;;;;;;;40.50;17.20;;;13.10;77.00;;;;;;1872746;77;21099;-55
2022/10/13 17:14:04;;;;;;;47.70;18.10;;;13.00;76.90;;;;;;1872507;76;21121;-55
2022/10/13 17:16:34;;;;;;;40.52;21.33;;;13.00;77.10;;;;;;1872717;77;21021;-56
2022/10/13 17:19:04;;;;;;;33.45;16.00;;;13.00;77.30;;;;;;1872728;77;21048;-56
2022/10/13 17:21:37;;;;;;;43.33;17.70;;;13.00;77.40;;;;;;1872735;77;21049;-56
2022/10/13 17:24:07;;;;;;;38.45;17.42;;;13.00;77.60;;;;;;1872872;77;21124;-54
2022/10/13 17:26:36;;;;;;;35.28;16.40;;;13.00;77.60;;;;;;1872750;76;21091;-56
2022/10/13 17:29:06;;;;;;;35.38;14.68;;;13.00;77.70;;;;;;1872765;77;21050;-56
2022/10/13 17:31:35;;;;;;;41.30;19.85;;;13.00;77.90;;;;;;1872850;77;21022;-56
2022/10/13 17:34:05;;;;;;;34.00;16.90;;;13.00;77.90;;;;;;1872691;77;21053;-54
2022/10/13 17:36:34;;;;;;;34.50;17.12;;;12.90;77.80;;;;;;1872726;77;20990;-55
2022/10/13 17:39:09;;;;;;;31.42;15.93;;;12.90;78.00;;;;;;1871334;77;21084;-57